JBU337 KJFK-MDST
Flight info
| Callsign | JBU337 |
|---|---|
| Flight time | 3h 13m |
| Altitude | 34000 |
| Route | SHIPP Y490 ROLLE/M077F340 DCT ATUGI/M077F350 L454 LUCTI/N0453F350 L454 MNDEZ/N0452F360 DCT SEKAR SEKAR2R |
| Aircraft | A320/M-SDE3FGHIRWY/LB1 |
Departure
| Time | 2026-05-09 01:36 |
|---|---|
| Airport | John F. Kennedy International Airport (KJFK) |
Arrival
| Time | 2026-05-09 04:50 |
|---|---|
| Airport | Cibao International Airport (MDST) |
| Time | Latitude | Longitude | Altitude | Speed | Heading |
|---|---|---|---|---|---|
| 2026-05-09 00:20 | 40.64619 | -73.77354 | 16 ft | 0 kts | 191° |
| 2026-05-09 01:03 | 40.64620 | -73.77354 | 16 ft | 2 kts | 191° |
| 2026-05-09 01:03 | 40.64646 | -73.77347 | 16 ft | 4 kts | 190° |
| 2026-05-09 01:03 | 40.64657 | -73.77345 | 16 ft | 0 kts | 189° |
| 2026-05-09 01:05 | 40.64688 | -73.77344 | 16 ft | 3 kts | 172° |
| 2026-05-09 01:06 | 40.64705 | -73.77348 | 16 ft | 3 kts | 154° |
| 2026-05-09 01:06 | 40.64720 | -73.77362 | 16 ft | 3 kts | 126° |
| 2026-05-09 01:06 | 40.64728 | -73.77383 | 16 ft | 3 kts | 111° |
| 2026-05-09 01:06 | 40.64735 | -73.77404 | 16 ft | 3 kts | 119° |
| 2026-05-09 01:07 | 40.64744 | -73.77425 | 16 ft | 3 kts | 119° |
| 2026-05-09 01:07 | 40.64749 | -73.77437 | 16 ft | 0 kts | 119° |
| 2026-05-09 01:27 | 40.64746 | -73.77431 | 16 ft | 1 kts | 118° |
| 2026-05-09 01:27 | 40.64745 | -73.77428 | 16 ft | 0 kts | 119° |
| 2026-05-09 01:27 | 40.64745 | -73.77427 | 18 ft | 1 kts | 117° |
| 2026-05-09 01:27 | 40.64751 | -73.77388 | 17 ft | 6 kts | 58° |
| 2026-05-09 01:28 | 40.64780 | -73.77341 | 17 ft | 7 kts | 63° |
| 2026-05-09 01:28 | 40.64771 | -73.77278 | 16 ft | 8 kts | 119° |
| 2026-05-09 01:28 | 40.64738 | -73.77213 | 16 ft | 9 kts | 123° |
| 2026-05-09 01:28 | 40.64699 | -73.77136 | 17 ft | 11 kts | 129° |
| 2026-05-09 01:29 | 40.64639 | -73.77090 | 16 ft | 7 kts | 161° |
| 2026-05-09 01:29 | 40.64584 | -73.77088 | 16 ft | 9 kts | 183° |
| 2026-05-09 01:29 | 40.64519 | -73.77091 | 16 ft | 10 kts | 181° |
| 2026-05-09 01:29 | 40.64447 | -73.77096 | 16 ft | 10 kts | 186° |
| 2026-05-09 01:30 | 40.64425 | -73.77049 | 17 ft | 4 kts | 86° |
| 2026-05-09 01:30 | 40.64426 | -73.77031 | 16 ft | 1 kts | 86° |
| 2026-05-09 01:30 | 40.64416 | -73.76980 | 18 ft | 7 kts | 114° |
| 2026-05-09 01:30 | 40.64390 | -73.76911 | 15 ft | 9 kts | 121° |
| 2026-05-09 01:31 | 40.64329 | -73.76881 | 18 ft | 11 kts | 181° |
| 2026-05-09 01:31 | 40.64251 | -73.76885 | 17 ft | 11 kts | 182° |
| 2026-05-09 01:31 | 40.64168 | -73.76890 | 17 ft | 13 kts | 183° |
| 2026-05-09 01:31 | 40.64073 | -73.76906 | 16 ft | 15 kts | 188° |
| 2026-05-09 01:32 | 40.63961 | -73.76913 | 17 ft | 17 kts | 180° |
| 2026-05-09 01:32 | 40.63837 | -73.76913 | 15 ft | 19 kts | 180° |
| 2026-05-09 01:32 | 40.63702 | -73.76915 | 15 ft | 20 kts | 180° |
| 2026-05-09 01:32 | 40.63559 | -73.76916 | 15 ft | 21 kts | 181° |
| 2026-05-09 01:33 | 40.63420 | -73.76927 | 15 ft | 20 kts | 186° |
| 2026-05-09 01:33 | 40.63275 | -73.76946 | 15 ft | 22 kts | 182° |
| 2026-05-09 01:33 | 40.63131 | -73.76957 | 16 ft | 18 kts | 188° |
| 2026-05-09 01:33 | 40.63032 | -73.77021 | 16 ft | 17 kts | 210° |
| 2026-05-09 01:34 | 40.62927 | -73.77100 | 17 ft | 18 kts | 210° |
| 2026-05-09 01:34 | 40.62828 | -73.77174 | 17 ft | 9 kts | 210° |
| 2026-05-09 01:34 | 40.62814 | -73.77188 | 18 ft | 7 kts | 228° |
| 2026-05-09 01:34 | 40.62835 | -73.77253 | 18 ft | 0 kts | 302° |
| 2026-05-09 01:35 | 40.62839 | -73.77263 | 16 ft | 3 kts | 302° |
| 2026-05-09 01:35 | 40.62941 | -73.77488 | 16 ft | 63 kts | 300° |
| 2026-05-09 01:35 | 40.63272 | -73.78220 | 19 ft | 120 kts | 301° |
| 2026-05-09 01:35 | 40.63780 | -73.79343 | 19 ft | 164 kts | 300° |
| 2026-05-09 01:36 | 40.64418 | -73.80744 | 250 ft | 187 kts | 301° |
| 2026-05-09 01:36 | 40.65121 | -73.82268 | 708 ft | 201 kts | 295° |
| 2026-05-09 01:36 | 40.65355 | -73.84074 | 1285 ft | 205 kts | 259° |
| 2026-05-09 01:36 | 40.64785 | -73.85826 | 1747 ft | 213 kts | 227° |
| 2026-05-09 01:37 | 40.63589 | -73.86930 | 2382 ft | 212 kts | 200° |
| 2026-05-09 01:37 | 40.62164 | -73.87558 | 2890 ft | 225 kts | 187° |
| 2026-05-09 01:37 | 40.60550 | -73.87257 | 3253 ft | 249 kts | 157° |
| 2026-05-09 01:37 | 40.59168 | -73.85786 | 3848 ft | 267 kts | 128° |
| 2026-05-09 01:38 | 40.58416 | -73.83497 | 4487 ft | 280 kts | 103° |
| 2026-05-09 01:38 | 40.58087 | -73.80955 | 5197 ft | 285 kts | 98° |
| 2026-05-09 01:38 | 40.57826 | -73.78345 | 5929 ft | 289 kts | 97° |
| 2026-05-09 01:38 | 40.57367 | -73.75755 | 6634 ft | 293 kts | 115° |
| 2026-05-09 01:39 | 40.56348 | -73.73426 | 7322 ft | 296 kts | 124° |
| 2026-05-09 01:39 | 40.55244 | -73.71108 | 8005 ft | 301 kts | 124° |
| 2026-05-09 01:39 | 40.54119 | -73.68757 | 8663 ft | 306 kts | 124° |
| 2026-05-09 01:39 | 40.52974 | -73.66375 | 9307 ft | 310 kts | 124° |
| 2026-05-09 01:40 | 40.51813 | -73.63962 | 9936 ft | 314 kts | 124° |
| 2026-05-09 01:40 | 40.50617 | -73.61473 | 10258 ft | 332 kts | 124° |
| 2026-05-09 01:40 | 40.49340 | -73.58827 | 10391 ft | 354 kts | 124° |
| 2026-05-09 01:40 | 40.47991 | -73.56034 | 10667 ft | 368 kts | 124° |
| 2026-05-09 01:41 | 40.46613 | -73.53170 | 11219 ft | 373 kts | 124° |
| 2026-05-09 01:41 | 40.45225 | -73.50270 | 11781 ft | 377 kts | 124° |
| 2026-05-09 01:41 | 40.43827 | -73.47343 | 12337 ft | 381 kts | 124° |
| 2026-05-09 01:41 | 40.42413 | -73.44387 | 12860 ft | 384 kts | 124° |
| 2026-05-09 01:42 | 40.40976 | -73.41397 | 13375 ft | 389 kts | 124° |
| 2026-05-09 01:42 | 40.39524 | -73.38376 | 13863 ft | 394 kts | 124° |
| 2026-05-09 01:42 | 40.38053 | -73.35312 | 14341 ft | 398 kts | 124° |
| 2026-05-09 01:42 | 40.36567 | -73.32224 | 14809 ft | 403 kts | 124° |
| 2026-05-09 01:43 | 40.35063 | -73.29102 | 15276 ft | 407 kts | 124° |
| 2026-05-09 01:43 | 40.33541 | -73.25951 | 15721 ft | 411 kts | 124° |
| 2026-05-09 01:43 | 40.32522 | -73.23848 | 16017 ft | 414 kts | 124° |
| 2026-05-09 01:43 | 40.30955 | -73.20659 | 16465 ft | 418 kts | 125° |
| 2026-05-09 01:44 | 40.29359 | -73.17457 | 16891 ft | 422 kts | 125° |
| 2026-05-09 01:44 | 40.27738 | -73.14230 | 17320 ft | 426 kts | 126° |
| 2026-05-09 01:44 | 40.26101 | -73.10980 | 17757 ft | 430 kts | 125° |
| 2026-05-09 01:44 | 40.24452 | -73.07691 | 18198 ft | 433 kts | 126° |
| 2026-05-09 01:45 | 40.22793 | -73.04376 | 18616 ft | 437 kts | 126° |
| 2026-05-09 01:45 | 40.21121 | -73.01034 | 19036 ft | 441 kts | 126° |
| 2026-05-09 01:45 | 40.19433 | -72.97653 | 19477 ft | 445 kts | 126° |
| 2026-05-09 01:45 | 40.17732 | -72.94255 | 19891 ft | 449 kts | 126° |
| 2026-05-09 01:46 | 40.16014 | -72.90831 | 20301 ft | 452 kts | 126° |
| 2026-05-09 01:46 | 40.14281 | -72.87387 | 20697 ft | 455 kts | 126° |
| 2026-05-09 01:46 | 40.12534 | -72.83917 | 21068 ft | 459 kts | 126° |
| 2026-05-09 01:46 | 40.10774 | -72.80423 | 21454 ft | 462 kts | 126° |
| 2026-05-09 01:47 | 40.09029 | -72.76878 | 21813 ft | 466 kts | 124° |
| 2026-05-09 01:47 | 40.07344 | -72.73244 | 22160 ft | 469 kts | 123° |
| 2026-05-09 01:47 | 40.05698 | -72.69549 | 22519 ft | 472 kts | 122° |
| 2026-05-09 01:47 | 40.04063 | -72.65819 | 22852 ft | 475 kts | 122° |
| 2026-05-09 01:48 | 40.02418 | -72.62063 | 23193 ft | 478 kts | 122° |
| 2026-05-09 01:48 | 40.00750 | -72.58298 | 23523 ft | 481 kts | 123° |
| 2026-05-09 01:48 | 39.99050 | -72.54523 | 23864 ft | 483 kts | 124° |
| 2026-05-09 01:48 | 39.97322 | -72.50743 | 24170 ft | 487 kts | 124° |
| 2026-05-09 01:49 | 39.95583 | -72.46936 | 24476 ft | 490 kts | 123° |
| 2026-05-09 01:49 | 39.93862 | -72.43091 | 24801 ft | 492 kts | 123° |
| 2026-05-09 01:49 | 39.92174 | -72.39254 | 25093 ft | 496 kts | 123° |
| 2026-05-09 01:49 | 39.90464 | -72.35334 | 25387 ft | 499 kts | 122° |
| 2026-05-09 01:50 | 39.88750 | -72.31401 | 25681 ft | 501 kts | 123° |
| 2026-05-09 01:50 | 39.87021 | -72.27448 | 25963 ft | 504 kts | 123° |
| 2026-05-09 01:50 | 39.85277 | -72.23483 | 26247 ft | 506 kts | 123° |
| 2026-05-09 01:50 | 39.83520 | -72.19508 | 26533 ft | 508 kts | 123° |
| 2026-05-09 01:51 | 39.81745 | -72.15511 | 26804 ft | 511 kts | 123° |
| 2026-05-09 01:51 | 39.79964 | -72.11512 | 27079 ft | 513 kts | 123° |
| 2026-05-09 01:51 | 39.78172 | -72.07483 | 27355 ft | 516 kts | 123° |
| 2026-05-09 01:51 | 39.76371 | -72.03444 | 27619 ft | 518 kts | 125° |
| 2026-05-09 01:52 | 39.74335 | -71.99609 | 27879 ft | 515 kts | 134° |
| 2026-05-09 01:52 | 39.71939 | -71.96168 | 28141 ft | 511 kts | 142° |
| 2026-05-09 01:52 | 39.69332 | -71.93036 | 28460 ft | 510 kts | 144° |
| 2026-05-09 01:52 | 39.66730 | -71.89921 | 28826 ft | 509 kts | 144° |
| 2026-05-09 01:53 | 39.64129 | -71.86798 | 29167 ft | 510 kts | 144° |
| 2026-05-09 01:53 | 39.61526 | -71.83670 | 29522 ft | 510 kts | 144° |
| 2026-05-09 01:53 | 39.58926 | -71.80544 | 29840 ft | 511 kts | 144° |
| 2026-05-09 01:53 | 39.56320 | -71.77417 | 30188 ft | 511 kts | 144° |
| 2026-05-09 01:54 | 39.53682 | -71.74343 | 30521 ft | 507 kts | 149° |
| 2026-05-09 01:54 | 39.50854 | -71.71707 | 30870 ft | 497 kts | 158° |
| 2026-05-09 01:54 | 39.47849 | -71.69609 | 31199 ft | 486 kts | 166° |
| 2026-05-09 01:54 | 39.44736 | -71.68047 | 31516 ft | 476 kts | 172° |
| 2026-05-09 01:55 | 39.41599 | -71.66661 | 31864 ft | 476 kts | 172° |
| 2026-05-09 01:55 | 39.38467 | -71.65265 | 32213 ft | 476 kts | 172° |
| 2026-05-09 01:55 | 39.35340 | -71.63862 | 32532 ft | 476 kts | 172° |
| 2026-05-09 01:55 | 39.32216 | -71.62454 | 32896 ft | 475 kts | 173° |
| 2026-05-09 01:56 | 39.29103 | -71.61053 | 33222 ft | 474 kts | 173° |
| 2026-05-09 01:56 | 39.25981 | -71.59650 | 33538 ft | 474 kts | 173° |
| 2026-05-09 01:56 | 39.22877 | -71.58262 | 33864 ft | 471 kts | 174° |
| 2026-05-09 01:56 | 39.19748 | -71.57208 | 33986 ft | 459 kts | 183° |
| 2026-05-09 01:57 | 39.13477 | -71.56568 | 34009 ft | 452 kts | 191° |
| 2026-05-09 01:57 | 39.07178 | -71.56230 | 34006 ft | 454 kts | 191° |
| 2026-05-09 01:58 | 39.00853 | -71.55830 | 34017 ft | 455 kts | 191° |
| 2026-05-09 01:58 | 38.94524 | -71.55415 | 34019 ft | 455 kts | 191° |
| 2026-05-09 01:59 | 38.88197 | -71.55022 | 34017 ft | 455 kts | 191° |
| 2026-05-09 01:59 | 38.81914 | -71.54644 | 34016 ft | 455 kts | 191° |
| 2026-05-09 02:00 | 38.75590 | -71.54270 | 34019 ft | 455 kts | 191° |
| 2026-05-09 02:00 | 38.69264 | -71.53897 | 34018 ft | 455 kts | 191° |
| 2026-05-09 02:01 | 38.62895 | -71.53514 | 34027 ft | 455 kts | 191° |
| 2026-05-09 02:01 | 38.56570 | -71.53146 | 34023 ft | 452 kts | 194° |
| 2026-05-09 02:02 | 38.53521 | -71.53337 | 34020 ft | 437 kts | 201° |
| 2026-05-09 02:02 | 38.50470 | -71.53816 | 34023 ft | 437 kts | 201° |
| 2026-05-09 02:02 | 38.44470 | -71.54741 | 34035 ft | 437 kts | 201° |
| 2026-05-09 02:03 | 38.38437 | -71.55655 | 34040 ft | 437 kts | 201° |
| 2026-05-09 02:03 | 38.32398 | -71.56569 | 34031 ft | 437 kts | 201° |
| 2026-05-09 02:04 | 38.26363 | -71.57489 | 34045 ft | 437 kts | 201° |
| 2026-05-09 02:04 | 38.20323 | -71.58417 | 34053 ft | 437 kts | 201° |
| 2026-05-09 02:05 | 38.14279 | -71.59334 | 34059 ft | 438 kts | 201° |
| 2026-05-09 02:05 | 38.08230 | -71.60245 | 34062 ft | 438 kts | 201° |
| 2026-05-09 02:06 | 38.02189 | -71.61157 | 34062 ft | 437 kts | 201° |
| 2026-05-09 02:07 | 37.93127 | -71.62526 | 34063 ft | 437 kts | 201° |
| 2026-05-09 02:07 | 37.87086 | -71.63436 | 34063 ft | 437 kts | 201° |
| 2026-05-09 02:08 | 37.81050 | -71.64342 | 34062 ft | 437 kts | 201° |
| 2026-05-09 02:08 | 37.75019 | -71.65251 | 34060 ft | 436 kts | 201° |
| 2026-05-09 02:09 | 37.68987 | -71.66157 | 34059 ft | 436 kts | 201° |
| 2026-05-09 02:09 | 37.62959 | -71.67058 | 34063 ft | 436 kts | 201° |
| 2026-05-09 02:10 | 37.56928 | -71.67959 | 34064 ft | 436 kts | 201° |
| 2026-05-09 02:10 | 37.50908 | -71.68851 | 34061 ft | 435 kts | 202° |
| 2026-05-09 02:11 | 37.44889 | -71.69744 | 34060 ft | 435 kts | 202° |
| 2026-05-09 02:11 | 37.38823 | -71.70458 | 34051 ft | 450 kts | 194° |
| 2026-05-09 02:12 | 37.32457 | -71.69888 | 34050 ft | 461 kts | 190° |
| 2026-05-09 02:12 | 37.26068 | -71.69209 | 34053 ft | 461 kts | 190° |
| 2026-05-09 02:13 | 37.19667 | -71.68530 | 34057 ft | 462 kts | 191° |
| 2026-05-09 02:13 | 37.13263 | -71.67859 | 34063 ft | 462 kts | 191° |
| 2026-05-09 02:14 | 37.06846 | -71.67190 | 34070 ft | 462 kts | 191° |
| 2026-05-09 02:14 | 37.00439 | -71.66539 | 34072 ft | 462 kts | 192° |
| 2026-05-09 02:15 | 36.94033 | -71.65890 | 34071 ft | 462 kts | 192° |
| 2026-05-09 02:15 | 36.87616 | -71.65223 | 34075 ft | 462 kts | 192° |
| 2026-05-09 02:16 | 36.81210 | -71.64557 | 34075 ft | 462 kts | 192° |
| 2026-05-09 02:16 | 36.74795 | -71.63894 | 34075 ft | 462 kts | 192° |
| 2026-05-09 02:17 | 36.68433 | -71.63243 | 34073 ft | 462 kts | 192° |
| 2026-05-09 02:17 | 36.62027 | -71.62588 | 34072 ft | 462 kts | 192° |
| 2026-05-09 02:18 | 36.55616 | -71.61938 | 34071 ft | 462 kts | 193° |
| 2026-05-09 02:18 | 36.49199 | -71.61293 | 34077 ft | 463 kts | 193° |
| 2026-05-09 02:19 | 36.42778 | -71.60633 | 34077 ft | 463 kts | 193° |
| 2026-05-09 02:19 | 36.36356 | -71.59973 | 34083 ft | 462 kts | 193° |
| 2026-05-09 02:20 | 36.29940 | -71.59315 | 34078 ft | 462 kts | 193° |
| 2026-05-09 02:20 | 36.23537 | -71.58663 | 34073 ft | 462 kts | 193° |
| 2026-05-09 02:21 | 36.17124 | -71.58022 | 34070 ft | 462 kts | 193° |
| 2026-05-09 02:21 | 36.10708 | -71.57388 | 34072 ft | 463 kts | 193° |
| 2026-05-09 02:22 | 36.04282 | -71.56743 | 34076 ft | 463 kts | 193° |
| 2026-05-09 02:22 | 35.97857 | -71.56082 | 34080 ft | 464 kts | 193° |
| 2026-05-09 02:23 | 35.91472 | -71.55439 | 34082 ft | 464 kts | 193° |
| 2026-05-09 02:23 | 35.85034 | -71.54798 | 34087 ft | 463 kts | 193° |
| 2026-05-09 02:24 | 35.78615 | -71.54152 | 34091 ft | 463 kts | 193° |
| 2026-05-09 02:24 | 35.72190 | -71.53511 | 34085 ft | 463 kts | 193° |
| 2026-05-09 02:25 | 35.65765 | -71.52867 | 34084 ft | 464 kts | 193° |
| 2026-05-09 02:25 | 35.62520 | -71.52341 | 34081 ft | 480 kts | 185° |
| 2026-05-09 02:25 | 35.59243 | -71.51501 | 34087 ft | 482 kts | 185° |
| 2026-05-09 02:26 | 35.52679 | -71.49807 | 34081 ft | 481 kts | 185° |
| 2026-05-09 02:26 | 35.46120 | -71.48125 | 34081 ft | 482 kts | 185° |
| 2026-05-09 02:27 | 35.39548 | -71.46446 | 34086 ft | 482 kts | 184° |
| 2026-05-09 02:27 | 35.32983 | -71.44763 | 34087 ft | 482 kts | 184° |
| 2026-05-09 02:28 | 35.26417 | -71.43094 | 34096 ft | 482 kts | 184° |
| 2026-05-09 02:28 | 35.20958 | -71.41707 | 34099 ft | 482 kts | 184° |
| 2026-05-09 02:29 | 35.14383 | -71.40027 | 34101 ft | 482 kts | 184° |
| 2026-05-09 02:29 | 35.07816 | -71.38350 | 34100 ft | 482 kts | 184° |
| 2026-05-09 02:30 | 35.01259 | -71.36688 | 34099 ft | 481 kts | 184° |
| 2026-05-09 02:30 | 34.94706 | -71.35032 | 34097 ft | 480 kts | 183° |
| 2026-05-09 02:31 | 34.88157 | -71.33385 | 34096 ft | 480 kts | 183° |
| 2026-05-09 02:31 | 34.81598 | -71.31737 | 34097 ft | 480 kts | 183° |
| 2026-05-09 02:32 | 34.75052 | -71.30091 | 34096 ft | 480 kts | 183° |
| 2026-05-09 02:32 | 34.68511 | -71.28447 | 34093 ft | 480 kts | 183° |
| 2026-05-09 02:33 | 34.62011 | -71.26822 | 34092 ft | 480 kts | 182° |
| 2026-05-09 02:33 | 34.55480 | -71.25188 | 34090 ft | 479 kts | 182° |
| 2026-05-09 02:34 | 34.48950 | -71.23549 | 34092 ft | 480 kts | 182° |
| 2026-05-09 02:34 | 34.42415 | -71.21907 | 34091 ft | 479 kts | 182° |
| 2026-05-09 02:35 | 34.35883 | -71.20276 | 34094 ft | 479 kts | 182° |
| 2026-05-09 02:35 | 34.29353 | -71.18661 | 34092 ft | 479 kts | 182° |
| 2026-05-09 02:36 | 34.22823 | -71.17043 | 34094 ft | 479 kts | 182° |
| 2026-05-09 02:36 | 34.16290 | -71.15425 | 34088 ft | 479 kts | 182° |
| 2026-05-09 02:37 | 34.09755 | -71.13801 | 34091 ft | 479 kts | 182° |
| 2026-05-09 02:37 | 34.03214 | -71.12173 | 34097 ft | 479 kts | 182° |
| 2026-05-09 02:38 | 33.96674 | -71.10560 | 34097 ft | 479 kts | 181° |
| 2026-05-09 02:38 | 33.90141 | -71.08952 | 34089 ft | 479 kts | 181° |
| 2026-05-09 02:39 | 33.83596 | -71.07341 | 34090 ft | 480 kts | 181° |
| 2026-05-09 02:39 | 33.77047 | -71.05730 | 34087 ft | 480 kts | 181° |
| 2026-05-09 02:40 | 33.70498 | -71.04126 | 34088 ft | 480 kts | 181° |
| 2026-05-09 02:40 | 33.63951 | -71.02527 | 34091 ft | 481 kts | 181° |
| 2026-05-09 02:41 | 33.57400 | -71.00923 | 34090 ft | 480 kts | 181° |
| 2026-05-09 02:41 | 33.50856 | -70.99320 | 34089 ft | 480 kts | 181° |
| 2026-05-09 02:42 | 33.44315 | -70.97731 | 34077 ft | 480 kts | 181° |
| 2026-05-09 02:42 | 33.37764 | -70.96141 | 34070 ft | 480 kts | 181° |
| 2026-05-09 02:43 | 33.31214 | -70.94547 | 34062 ft | 481 kts | 181° |
| 2026-05-09 02:43 | 33.24661 | -70.92951 | 34060 ft | 481 kts | 181° |
| 2026-05-09 02:44 | 33.18101 | -70.91362 | 34061 ft | 481 kts | 181° |
| 2026-05-09 02:44 | 33.11546 | -70.89772 | 34063 ft | 481 kts | 181° |
| 2026-05-09 02:45 | 33.04976 | -70.88182 | 34068 ft | 482 kts | 181° |
| 2026-05-09 02:45 | 32.98401 | -70.86603 | 34076 ft | 482 kts | 181° |
| 2026-05-09 02:46 | 32.91831 | -70.85026 | 34087 ft | 482 kts | 181° |
| 2026-05-09 02:46 | 32.85246 | -70.83448 | 34092 ft | 482 kts | 180° |
| 2026-05-09 02:47 | 32.78710 | -70.81873 | 34096 ft | 482 kts | 180° |
| 2026-05-09 02:47 | 32.72128 | -70.80284 | 34099 ft | 482 kts | 180° |
| 2026-05-09 02:48 | 32.65544 | -70.78703 | 34097 ft | 482 kts | 180° |
| 2026-05-09 02:48 | 32.58975 | -70.77140 | 34095 ft | 481 kts | 180° |
| 2026-05-09 02:49 | 32.52408 | -70.75576 | 34088 ft | 481 kts | 180° |
| 2026-05-09 02:49 | 32.45844 | -70.74012 | 34081 ft | 481 kts | 180° |
| 2026-05-09 02:50 | 32.39271 | -70.72445 | 34076 ft | 482 kts | 180° |
| 2026-05-09 02:50 | 32.32705 | -70.70884 | 34075 ft | 481 kts | 180° |
| 2026-05-09 02:51 | 32.26129 | -70.69328 | 34077 ft | 482 kts | 180° |
| 2026-05-09 02:51 | 32.19548 | -70.67767 | 34075 ft | 482 kts | 180° |
| 2026-05-09 02:52 | 32.12970 | -70.66208 | 34083 ft | 482 kts | 180° |
| 2026-05-09 02:52 | 32.06395 | -70.64659 | 34084 ft | 482 kts | 180° |
| 2026-05-09 02:53 | 31.99815 | -70.63105 | 34085 ft | 482 kts | 179° |
| 2026-05-09 02:53 | 31.93234 | -70.61548 | 34083 ft | 483 kts | 179° |
| 2026-05-09 02:54 | 31.86643 | -70.59992 | 34083 ft | 483 kts | 179° |
| 2026-05-09 02:54 | 31.80095 | -70.58452 | 34086 ft | 483 kts | 179° |
| 2026-05-09 02:55 | 31.73505 | -70.56915 | 34087 ft | 483 kts | 179° |
| 2026-05-09 02:55 | 31.66919 | -70.55381 | 34089 ft | 483 kts | 179° |
| 2026-05-09 02:56 | 31.60326 | -70.53835 | 34089 ft | 483 kts | 179° |
| 2026-05-09 02:56 | 31.53738 | -70.52296 | 34089 ft | 483 kts | 179° |
| 2026-05-09 02:57 | 31.47146 | -70.50765 | 34090 ft | 482 kts | 179° |
| 2026-05-09 02:57 | 31.40561 | -70.49229 | 34087 ft | 482 kts | 179° |
| 2026-05-09 02:58 | 31.33982 | -70.47698 | 34092 ft | 482 kts | 178° |
| 2026-05-09 02:58 | 31.27406 | -70.46170 | 34087 ft | 481 kts | 179° |
| 2026-05-09 02:59 | 31.20837 | -70.44652 | 34088 ft | 481 kts | 178° |
| 2026-05-09 02:59 | 31.14283 | -70.43133 | 34079 ft | 480 kts | 178° |
| 2026-05-09 03:00 | 31.07734 | -70.41619 | 34078 ft | 480 kts | 178° |
| 2026-05-09 03:00 | 31.01189 | -70.40107 | 34077 ft | 479 kts | 178° |
| 2026-05-09 03:01 | 30.94643 | -70.38598 | 34079 ft | 479 kts | 178° |
| 2026-05-09 03:01 | 30.88102 | -70.37088 | 34080 ft | 479 kts | 178° |
| 2026-05-09 03:02 | 30.81558 | -70.35588 | 34080 ft | 479 kts | 178° |
| 2026-05-09 03:02 | 30.75017 | -70.34091 | 34076 ft | 479 kts | 178° |
| 2026-05-09 03:03 | 30.68492 | -70.32587 | 34079 ft | 478 kts | 177° |
| 2026-05-09 03:03 | 30.61966 | -70.31086 | 34080 ft | 478 kts | 178° |
| 2026-05-09 03:04 | 30.55442 | -70.29603 | 34074 ft | 477 kts | 177° |
| 2026-05-09 03:04 | 30.48923 | -70.28123 | 34079 ft | 477 kts | 177° |
| 2026-05-09 03:05 | 30.42421 | -70.26630 | 34073 ft | 476 kts | 178° |
| 2026-05-09 03:05 | 30.35919 | -70.25151 | 34089 ft | 477 kts | 178° |
| 2026-05-09 03:06 | 30.29395 | -70.23672 | 34084 ft | 477 kts | 178° |
| 2026-05-09 03:06 | 30.22877 | -70.22205 | 34081 ft | 477 kts | 178° |
| 2026-05-09 03:07 | 30.16353 | -70.20719 | 34079 ft | 478 kts | 178° |
| 2026-05-09 03:07 | 30.09866 | -70.19242 | 34082 ft | 478 kts | 178° |
| 2026-05-09 03:08 | 30.03290 | -70.17750 | 34084 ft | 478 kts | 178° |
| 2026-05-09 03:08 | 29.96757 | -70.16276 | 34084 ft | 478 kts | 178° |
| 2026-05-09 03:09 | 29.90229 | -70.14816 | 34087 ft | 478 kts | 178° |
| 2026-05-09 03:09 | 29.83742 | -70.13357 | 34086 ft | 478 kts | 178° |
| 2026-05-09 03:10 | 29.77213 | -70.11880 | 34083 ft | 478 kts | 178° |
| 2026-05-09 03:10 | 29.70678 | -70.10405 | 34090 ft | 478 kts | 178° |
| 2026-05-09 03:11 | 29.64143 | -70.08935 | 34090 ft | 479 kts | 178° |
| 2026-05-09 03:11 | 29.57607 | -70.07476 | 34096 ft | 479 kts | 178° |
| 2026-05-09 03:12 | 29.52168 | -70.06262 | 34097 ft | 479 kts | 178° |
| 2026-05-09 03:12 | 29.45635 | -70.04809 | 34098 ft | 478 kts | 178° |
| 2026-05-09 03:13 | 29.35835 | -70.02627 | 34096 ft | 478 kts | 178° |
| 2026-05-09 03:13 | 29.29318 | -70.01164 | 34094 ft | 477 kts | 177° |
| 2026-05-09 03:14 | 29.22800 | -69.99715 | 34092 ft | 476 kts | 177° |
| 2026-05-09 03:14 | 29.16288 | -69.98263 | 34076 ft | 477 kts | 177° |
| 2026-05-09 03:15 | 29.09772 | -69.96822 | 34075 ft | 477 kts | 177° |
| 2026-05-09 03:15 | 29.03255 | -69.95383 | 34080 ft | 477 kts | 177° |
| 2026-05-09 03:16 | 28.96733 | -69.93935 | 34081 ft | 477 kts | 177° |
| 2026-05-09 03:16 | 28.90214 | -69.92499 | 34088 ft | 477 kts | 176° |
| 2026-05-09 03:17 | 28.83702 | -69.91056 | 34091 ft | 477 kts | 176° |
| 2026-05-09 03:17 | 28.77189 | -69.89615 | 34091 ft | 477 kts | 176° |
| 2026-05-09 03:18 | 28.70677 | -69.88180 | 34087 ft | 476 kts | 176° |
| 2026-05-09 03:18 | 28.64170 | -69.86759 | 34094 ft | 476 kts | 176° |
| 2026-05-09 03:19 | 28.57670 | -69.85337 | 34087 ft | 475 kts | 176° |
| 2026-05-09 03:19 | 28.51183 | -69.83916 | 34090 ft | 475 kts | 176° |
| 2026-05-09 03:20 | 28.44702 | -69.82490 | 34091 ft | 474 kts | 176° |
| 2026-05-09 03:20 | 28.38224 | -69.81070 | 34089 ft | 474 kts | 176° |
| 2026-05-09 03:21 | 28.31745 | -69.79657 | 34089 ft | 474 kts | 176° |
| 2026-05-09 03:21 | 28.25276 | -69.78244 | 34093 ft | 473 kts | 176° |
| 2026-05-09 03:22 | 28.18809 | -69.76835 | 34094 ft | 473 kts | 176° |
| 2026-05-09 03:22 | 28.12349 | -69.75432 | 34087 ft | 473 kts | 176° |
| 2026-05-09 03:23 | 28.05885 | -69.74022 | 34092 ft | 473 kts | 176° |
| 2026-05-09 03:23 | 27.99420 | -69.72615 | 34093 ft | 473 kts | 176° |
| 2026-05-09 03:24 | 27.92958 | -69.71209 | 34097 ft | 473 kts | 176° |
| 2026-05-09 03:24 | 27.86495 | -69.69816 | 34099 ft | 472 kts | 176° |
| 2026-05-09 03:25 | 27.80037 | -69.68424 | 34096 ft | 472 kts | 176° |
| 2026-05-09 03:25 | 27.73594 | -69.67028 | 34088 ft | 472 kts | 176° |
| 2026-05-09 03:26 | 27.67140 | -69.65627 | 34091 ft | 472 kts | 176° |
| 2026-05-09 03:26 | 27.60727 | -69.64243 | 34092 ft | 473 kts | 176° |
| 2026-05-09 03:27 | 27.54263 | -69.62856 | 34089 ft | 473 kts | 175° |
| 2026-05-09 03:27 | 27.47791 | -69.61463 | 34093 ft | 474 kts | 175° |
| 2026-05-09 03:28 | 27.41310 | -69.60070 | 34093 ft | 474 kts | 175° |
| 2026-05-09 03:28 | 27.34837 | -69.58683 | 34084 ft | 474 kts | 175° |
| 2026-05-09 03:29 | 27.28355 | -69.57295 | 34086 ft | 474 kts | 175° |
| 2026-05-09 03:29 | 27.21875 | -69.55909 | 34085 ft | 474 kts | 175° |
| 2026-05-09 03:30 | 27.15385 | -69.54521 | 34078 ft | 475 kts | 175° |
| 2026-05-09 03:30 | 27.08887 | -69.53133 | 34080 ft | 475 kts | 174° |
| 2026-05-09 03:31 | 27.02387 | -69.51738 | 34079 ft | 476 kts | 174° |
| 2026-05-09 03:31 | 26.95924 | -69.50364 | 34082 ft | 476 kts | 174° |
| 2026-05-09 03:32 | 26.89412 | -69.48983 | 34084 ft | 477 kts | 174° |
| 2026-05-09 03:32 | 26.82894 | -69.47596 | 34087 ft | 477 kts | 174° |
| 2026-05-09 03:33 | 26.76373 | -69.46208 | 34081 ft | 477 kts | 174° |
| 2026-05-09 03:33 | 26.69852 | -69.44822 | 34083 ft | 477 kts | 173° |
| 2026-05-09 03:34 | 26.63320 | -69.43447 | 34082 ft | 477 kts | 173° |
| 2026-05-09 03:34 | 26.56790 | -69.42068 | 34084 ft | 477 kts | 173° |
| 2026-05-09 03:35 | 26.50257 | -69.40685 | 34085 ft | 478 kts | 173° |
| 2026-05-09 03:35 | 26.43732 | -69.39301 | 34086 ft | 477 kts | 173° |
| 2026-05-09 03:36 | 26.37203 | -69.37928 | 34087 ft | 477 kts | 173° |
| 2026-05-09 03:36 | 26.30683 | -69.36551 | 34082 ft | 477 kts | 173° |
| 2026-05-09 03:37 | 26.24202 | -69.35182 | 34081 ft | 476 kts | 173° |
| 2026-05-09 03:37 | 26.17683 | -69.33831 | 34080 ft | 477 kts | 173° |
| 2026-05-09 03:38 | 26.11169 | -69.32467 | 34077 ft | 476 kts | 173° |
| 2026-05-09 03:38 | 26.04655 | -69.31092 | 34072 ft | 476 kts | 173° |
| 2026-05-09 03:39 | 25.98134 | -69.29721 | 34078 ft | 477 kts | 173° |
| 2026-05-09 03:39 | 25.91606 | -69.28359 | 34076 ft | 477 kts | 172° |
| 2026-05-09 03:40 | 25.85073 | -69.26999 | 34075 ft | 478 kts | 172° |
| 2026-05-09 03:40 | 25.78530 | -69.25634 | 34078 ft | 478 kts | 172° |
| 2026-05-09 03:41 | 25.71993 | -69.24269 | 34080 ft | 478 kts | 172° |
| 2026-05-09 03:41 | 25.65447 | -69.22911 | 34072 ft | 479 kts | 172° |
| 2026-05-09 03:42 | 25.58903 | -69.21542 | 34076 ft | 479 kts | 172° |
| 2026-05-09 03:42 | 25.52344 | -69.20185 | 34076 ft | 479 kts | 172° |
| 2026-05-09 03:43 | 25.45776 | -69.18831 | 34077 ft | 480 kts | 172° |
| 2026-05-09 03:43 | 25.39209 | -69.17462 | 34079 ft | 480 kts | 172° |
| 2026-05-09 03:44 | 25.32644 | -69.16097 | 34083 ft | 480 kts | 172° |
| 2026-05-09 03:44 | 25.26069 | -69.14739 | 34080 ft | 480 kts | 172° |
| 2026-05-09 03:45 | 25.19498 | -69.13387 | 34081 ft | 480 kts | 172° |
| 2026-05-09 03:45 | 25.12926 | -69.12024 | 34085 ft | 480 kts | 172° |
| 2026-05-09 03:46 | 25.06352 | -69.10668 | 34081 ft | 481 kts | 172° |
| 2026-05-09 03:46 | 24.99771 | -69.09313 | 34078 ft | 481 kts | 172° |
| 2026-05-09 03:47 | 24.93211 | -69.07808 | 34079 ft | 482 kts | 169° |
| 2026-05-09 03:47 | 24.86711 | -69.06155 | 34077 ft | 482 kts | 169° |
| 2026-05-09 03:48 | 24.80171 | -69.04495 | 34078 ft | 483 kts | 169° |
| 2026-05-09 03:48 | 24.73610 | -69.02875 | 34084 ft | 483 kts | 169° |
| 2026-05-09 03:49 | 24.67035 | -69.01273 | 34085 ft | 483 kts | 169° |
| 2026-05-09 03:49 | 24.60471 | -68.99685 | 34089 ft | 483 kts | 169° |
| 2026-05-09 03:50 | 24.53911 | -68.98095 | 34085 ft | 483 kts | 169° |
| 2026-05-09 03:50 | 24.47343 | -68.96491 | 34084 ft | 483 kts | 169° |
| 2026-05-09 03:51 | 24.40782 | -68.94891 | 34080 ft | 483 kts | 169° |
| 2026-05-09 03:51 | 24.34218 | -68.93290 | 34079 ft | 484 kts | 169° |
| 2026-05-09 03:52 | 24.27645 | -68.91665 | 34084 ft | 484 kts | 169° |
| 2026-05-09 03:52 | 24.21075 | -68.90041 | 34085 ft | 484 kts | 169° |
| 2026-05-09 03:53 | 24.14509 | -68.88415 | 34083 ft | 484 kts | 169° |
| 2026-05-09 03:53 | 24.07939 | -68.86803 | 34076 ft | 484 kts | 169° |
| 2026-05-09 03:54 | 24.01360 | -68.85185 | 34079 ft | 485 kts | 169° |
| 2026-05-09 03:54 | 23.94773 | -68.83571 | 34083 ft | 485 kts | 169° |
| 2026-05-09 03:55 | 23.88187 | -68.81962 | 34091 ft | 485 kts | 169° |
| 2026-05-09 03:55 | 23.81600 | -68.80354 | 34090 ft | 485 kts | 169° |
| 2026-05-09 03:56 | 23.76134 | -68.79017 | 34088 ft | 484 kts | 169° |
| 2026-05-09 03:56 | 23.69557 | -68.77412 | 34090 ft | 484 kts | 169° |
| 2026-05-09 03:57 | 23.62950 | -68.76056 | 34082 ft | 482 kts | 179° |
| 2026-05-09 03:57 | 23.56365 | -68.76776 | 34082 ft | 474 kts | 199° |
| 2026-05-09 03:58 | 23.50443 | -68.79701 | 34075 ft | 465 kts | 215° |
| 2026-05-09 03:58 | 23.44912 | -68.83388 | 34072 ft | 466 kts | 215° |
| 2026-05-09 03:59 | 23.39377 | -68.87063 | 34080 ft | 466 kts | 214° |
| 2026-05-09 03:59 | 23.33823 | -68.90731 | 34080 ft | 467 kts | 215° |
| 2026-05-09 04:00 | 23.28255 | -68.94409 | 34116 ft | 474 kts | 214° |
| 2026-05-09 04:00 | 23.22581 | -68.98158 | 34071 ft | 471 kts | 214° |
| 2026-05-09 04:01 | 23.17020 | -69.01832 | 34070 ft | 466 kts | 214° |
| 2026-05-09 04:01 | 23.11485 | -69.05488 | 34074 ft | 465 kts | 214° |
| 2026-05-09 04:02 | 23.05948 | -69.09127 | 34075 ft | 465 kts | 214° |
| 2026-05-09 04:02 | 23.00420 | -69.12768 | 34072 ft | 465 kts | 214° |
| 2026-05-09 04:03 | 22.94894 | -69.16407 | 34079 ft | 465 kts | 214° |
| 2026-05-09 04:03 | 22.89357 | -69.20045 | 34082 ft | 465 kts | 214° |
| 2026-05-09 04:04 | 22.83826 | -69.23681 | 34080 ft | 465 kts | 214° |
| 2026-05-09 04:04 | 22.78299 | -69.27313 | 34087 ft | 465 kts | 214° |
| 2026-05-09 04:05 | 22.72800 | -69.30913 | 34089 ft | 465 kts | 214° |
| 2026-05-09 04:05 | 22.67268 | -69.34533 | 34089 ft | 465 kts | 214° |
| 2026-05-09 04:06 | 22.61731 | -69.38155 | 34090 ft | 465 kts | 214° |
| 2026-05-09 04:06 | 22.56198 | -69.41775 | 34096 ft | 465 kts | 214° |
| 2026-05-09 04:07 | 22.50664 | -69.45393 | 34095 ft | 464 kts | 214° |
| 2026-05-09 04:07 | 22.45130 | -69.48993 | 34092 ft | 464 kts | 214° |
| 2026-05-09 04:08 | 22.39605 | -69.52588 | 34092 ft | 463 kts | 214° |
| 2026-05-09 04:08 | 22.34122 | -69.56163 | 34086 ft | 463 kts | 214° |
| 2026-05-09 04:09 | 22.28605 | -69.59754 | 34083 ft | 463 kts | 214° |
| 2026-05-09 04:09 | 22.23091 | -69.63338 | 34078 ft | 462 kts | 214° |
| 2026-05-09 04:10 | 22.17585 | -69.66921 | 34079 ft | 462 kts | 214° |
| 2026-05-09 04:10 | 22.12074 | -69.70494 | 34078 ft | 463 kts | 214° |
| 2026-05-09 04:11 | 22.06554 | -69.74071 | 34079 ft | 462 kts | 214° |
| 2026-05-09 04:11 | 22.01050 | -69.77641 | 34071 ft | 462 kts | 214° |
| 2026-05-09 04:12 | 21.95537 | -69.81200 | 34060 ft | 462 kts | 214° |
| 2026-05-09 04:12 | 21.90030 | -69.84762 | 34055 ft | 462 kts | 214° |
| 2026-05-09 04:13 | 21.84523 | -69.88337 | 34051 ft | 462 kts | 214° |
| 2026-05-09 04:13 | 21.79015 | -69.91887 | 34050 ft | 461 kts | 214° |
| 2026-05-09 04:14 | 21.73539 | -69.95403 | 33929 ft | 459 kts | 214° |
| 2026-05-09 04:14 | 21.70811 | -69.97157 | 33573 ft | 454 kts | 214° |
| 2026-05-09 04:14 | 21.68100 | -69.98903 | 33326 ft | 454 kts | 214° |
| 2026-05-09 04:15 | 21.65397 | -70.00642 | 33076 ft | 452 kts | 214° |
| 2026-05-09 04:15 | 21.62701 | -70.02376 | 32825 ft | 450 kts | 213° |
| 2026-05-09 04:15 | 21.60020 | -70.04104 | 32576 ft | 449 kts | 213° |
| 2026-05-09 04:15 | 21.57339 | -70.05826 | 32324 ft | 447 kts | 213° |
| 2026-05-09 04:16 | 21.54672 | -70.07538 | 32074 ft | 446 kts | 213° |
| 2026-05-09 04:16 | 21.52016 | -70.09242 | 31823 ft | 444 kts | 213° |
| 2026-05-09 04:16 | 21.49367 | -70.10941 | 31573 ft | 443 kts | 213° |
| 2026-05-09 04:16 | 21.46729 | -70.12636 | 31325 ft | 441 kts | 213° |
| 2026-05-09 04:17 | 21.44096 | -70.14328 | 31079 ft | 440 kts | 213° |
| 2026-05-09 04:17 | 21.41473 | -70.16009 | 30822 ft | 438 kts | 213° |
| 2026-05-09 04:17 | 21.38859 | -70.17686 | 30571 ft | 436 kts | 213° |
| 2026-05-09 04:17 | 21.36260 | -70.19355 | 30320 ft | 435 kts | 213° |
| 2026-05-09 04:18 | 21.33668 | -70.21016 | 30070 ft | 433 kts | 213° |
| 2026-05-09 04:18 | 21.31078 | -70.22672 | 29816 ft | 432 kts | 212° |
| 2026-05-09 04:18 | 21.28503 | -70.24316 | 29566 ft | 431 kts | 212° |
| 2026-05-09 04:18 | 21.25928 | -70.25959 | 29316 ft | 430 kts | 212° |
| 2026-05-09 04:19 | 21.23366 | -70.27601 | 29068 ft | 428 kts | 212° |
| 2026-05-09 04:19 | 21.20809 | -70.29236 | 28816 ft | 427 kts | 212° |
| 2026-05-09 04:19 | 21.18262 | -70.30864 | 28566 ft | 426 kts | 212° |
| 2026-05-09 04:19 | 21.15722 | -70.32483 | 28316 ft | 424 kts | 212° |
| 2026-05-09 04:20 | 21.13190 | -70.34098 | 28064 ft | 423 kts | 212° |
| 2026-05-09 04:20 | 21.10670 | -70.35706 | 27814 ft | 422 kts | 212° |
| 2026-05-09 04:20 | 21.08153 | -70.37312 | 27564 ft | 420 kts | 212° |
| 2026-05-09 04:20 | 21.05640 | -70.38908 | 27314 ft | 419 kts | 212° |
| 2026-05-09 04:21 | 21.03138 | -70.40500 | 27063 ft | 418 kts | 212° |
| 2026-05-09 04:21 | 21.00640 | -70.42093 | 26812 ft | 417 kts | 212° |
| 2026-05-09 04:21 | 20.95676 | -70.45268 | 26309 ft | 414 kts | 212° |
| 2026-05-09 04:22 | 20.93204 | -70.46842 | 26058 ft | 413 kts | 211° |
| 2026-05-09 04:22 | 20.90737 | -70.48408 | 25821 ft | 412 kts | 211° |
| 2026-05-09 04:22 | 20.88282 | -70.49965 | 25557 ft | 410 kts | 211° |
| 2026-05-09 04:22 | 20.85829 | -70.51524 | 25306 ft | 409 kts | 211° |
| 2026-05-09 04:23 | 20.83385 | -70.53076 | 25057 ft | 408 kts | 211° |
| 2026-05-09 04:23 | 20.80950 | -70.54622 | 24807 ft | 406 kts | 211° |
| 2026-05-09 04:23 | 20.78526 | -70.56161 | 24557 ft | 405 kts | 211° |
| 2026-05-09 04:23 | 20.76102 | -70.57698 | 24302 ft | 404 kts | 211° |
| 2026-05-09 04:24 | 20.73692 | -70.59224 | 24055 ft | 402 kts | 211° |
| 2026-05-09 04:24 | 20.71295 | -70.60744 | 23802 ft | 400 kts | 211° |
| 2026-05-09 04:24 | 20.68907 | -70.62261 | 23556 ft | 399 kts | 211° |
| 2026-05-09 04:24 | 20.66525 | -70.63770 | 23303 ft | 398 kts | 211° |
| 2026-05-09 04:25 | 20.64148 | -70.65276 | 23054 ft | 396 kts | 211° |
| 2026-05-09 04:25 | 20.61783 | -70.66776 | 22802 ft | 395 kts | 211° |
| 2026-05-09 04:25 | 20.59422 | -70.68269 | 22554 ft | 394 kts | 211° |
| 2026-05-09 04:25 | 20.57065 | -70.69758 | 22303 ft | 393 kts | 211° |
| 2026-05-09 04:26 | 20.54721 | -70.71240 | 22052 ft | 391 kts | 211° |
| 2026-05-09 04:26 | 20.52383 | -70.72719 | 21804 ft | 391 kts | 211° |
| 2026-05-09 04:26 | 20.50046 | -70.74197 | 21553 ft | 389 kts | 211° |
| 2026-05-09 04:26 | 20.47731 | -70.75657 | 21301 ft | 384 kts | 210° |
| 2026-05-09 04:27 | 20.45455 | -70.77092 | 21049 ft | 376 kts | 210° |
| 2026-05-09 04:27 | 20.43203 | -70.78474 | 20794 ft | 371 kts | 206° |
| 2026-05-09 04:27 | 20.40872 | -70.79528 | 20551 ft | 368 kts | 197° |
| 2026-05-09 04:27 | 20.38410 | -70.80223 | 20305 ft | 365 kts | 190° |
| 2026-05-09 04:28 | 20.35925 | -70.80771 | 20047 ft | 364 kts | 191° |
| 2026-05-09 04:28 | 20.33449 | -70.81323 | 19797 ft | 363 kts | 191° |
| 2026-05-09 04:28 | 20.30980 | -70.81878 | 19549 ft | 362 kts | 191° |
| 2026-05-09 04:28 | 20.28522 | -70.82432 | 19295 ft | 361 kts | 190° |
| 2026-05-09 04:29 | 20.26069 | -70.82983 | 19045 ft | 359 kts | 190° |
| 2026-05-09 04:29 | 20.23593 | -70.83538 | 18792 ft | 358 kts | 190° |
| 2026-05-09 04:29 | 20.21155 | -70.84078 | 18537 ft | 358 kts | 190° |
| 2026-05-09 04:29 | 20.18722 | -70.84616 | 18290 ft | 356 kts | 190° |
| 2026-05-09 04:30 | 20.16302 | -70.85155 | 18041 ft | 355 kts | 190° |
| 2026-05-09 04:30 | 20.13890 | -70.85694 | 17791 ft | 354 kts | 190° |
| 2026-05-09 04:30 | 20.11481 | -70.86238 | 17540 ft | 353 kts | 190° |
| 2026-05-09 04:30 | 20.09086 | -70.86776 | 17285 ft | 351 kts | 190° |
| 2026-05-09 04:31 | 20.06705 | -70.87308 | 17039 ft | 349 kts | 190° |
| 2026-05-09 04:31 | 20.04363 | -70.87831 | 16791 ft | 347 kts | 190° |
| 2026-05-09 04:31 | 20.01972 | -70.88362 | 16537 ft | 346 kts | 190° |
| 2026-05-09 04:31 | 19.99620 | -70.88887 | 16286 ft | 344 kts | 190° |
| 2026-05-09 04:32 | 19.97286 | -70.89410 | 16038 ft | 341 kts | 190° |
| 2026-05-09 04:32 | 19.94970 | -70.89925 | 15787 ft | 340 kts | 190° |
| 2026-05-09 04:32 | 19.92663 | -70.90441 | 15535 ft | 338 kts | 190° |
| 2026-05-09 04:32 | 19.90397 | -70.90949 | 15289 ft | 336 kts | 190° |
| 2026-05-09 04:33 | 19.88113 | -70.91460 | 15089 ft | 335 kts | 190° |
| 2026-05-09 04:33 | 19.85837 | -70.91969 | 15054 ft | 334 kts | 190° |
| 2026-05-09 04:33 | 19.83563 | -70.92478 | 15056 ft | 334 kts | 190° |
| 2026-05-09 04:33 | 19.81287 | -70.92986 | 15049 ft | 334 kts | 190° |
| 2026-05-09 04:34 | 19.79012 | -70.93491 | 15057 ft | 334 kts | 190° |
| 2026-05-09 04:34 | 19.76705 | -70.94007 | 15056 ft | 334 kts | 190° |
| 2026-05-09 04:34 | 19.74426 | -70.94516 | 15053 ft | 334 kts | 190° |
| 2026-05-09 04:34 | 19.72181 | -70.95015 | 15061 ft | 334 kts | 190° |
| 2026-05-09 04:35 | 19.69903 | -70.95519 | 15070 ft | 334 kts | 189° |
| 2026-05-09 04:35 | 19.67630 | -70.96019 | 15072 ft | 334 kts | 189° |
| 2026-05-09 04:35 | 19.65338 | -70.96354 | 15075 ft | 331 kts | 176° |
| 2026-05-09 04:35 | 19.63094 | -70.95967 | 14853 ft | 324 kts | 157° |
| 2026-05-09 04:36 | 19.61142 | -70.94849 | 14598 ft | 317 kts | 137° |
| 2026-05-09 04:36 | 19.59655 | -70.93163 | 14340 ft | 311 kts | 120° |
| 2026-05-09 04:36 | 19.58744 | -70.91116 | 14098 ft | 306 kts | 102° |
| 2026-05-09 04:36 | 19.58463 | -70.88910 | 13848 ft | 301 kts | 86° |
| 2026-05-09 04:37 | 19.58626 | -70.86704 | 13602 ft | 300 kts | 83° |
| 2026-05-09 04:37 | 19.58799 | -70.84505 | 13352 ft | 299 kts | 83° |
| 2026-05-09 04:37 | 19.58964 | -70.82311 | 13101 ft | 297 kts | 84° |
| 2026-05-09 04:37 | 19.59124 | -70.80134 | 12851 ft | 296 kts | 84° |
| 2026-05-09 04:38 | 19.59283 | -70.77963 | 12600 ft | 295 kts | 84° |
| 2026-05-09 04:38 | 19.59442 | -70.75799 | 12347 ft | 294 kts | 84° |
| 2026-05-09 04:38 | 19.59603 | -70.73639 | 12096 ft | 293 kts | 84° |
| 2026-05-09 04:38 | 19.59765 | -70.71494 | 11845 ft | 291 kts | 84° |
| 2026-05-09 04:39 | 19.59928 | -70.69354 | 11584 ft | 289 kts | 84° |
| 2026-05-09 04:39 | 19.60092 | -70.67234 | 11331 ft | 287 kts | 84° |
| 2026-05-09 04:39 | 19.60247 | -70.65114 | 11079 ft | 288 kts | 85° |
| 2026-05-09 04:39 | 19.60400 | -70.62993 | 10829 ft | 289 kts | 85° |
| 2026-05-09 04:40 | 19.60500 | -70.61591 | 10667 ft | 290 kts | 84° |
| 2026-05-09 04:40 | 19.60647 | -70.59469 | 10407 ft | 287 kts | 87° |
| 2026-05-09 04:40 | 19.60554 | -70.57358 | 10142 ft | 287 kts | 97° |
| 2026-05-09 04:40 | 19.60169 | -70.55286 | 9913 ft | 286 kts | 103° |
| 2026-05-09 04:41 | 19.59595 | -70.53268 | 9801 ft | 288 kts | 108° |
| 2026-05-09 04:41 | 19.58844 | -70.51316 | 9535 ft | 285 kts | 114° |
| 2026-05-09 04:41 | 19.57926 | -70.49482 | 9187 ft | 276 kts | 120° |
| 2026-05-09 04:41 | 19.56873 | -70.47805 | 8828 ft | 271 kts | 126° |
| 2026-05-09 04:42 | 19.55671 | -70.46281 | 8466 ft | 268 kts | 131° |
| 2026-05-09 04:42 | 19.54359 | -70.44893 | 8129 ft | 264 kts | 136° |
| 2026-05-09 04:42 | 19.52964 | -70.43653 | 7797 ft | 260 kts | 141° |
| 2026-05-09 04:42 | 19.51493 | -70.42554 | 7460 ft | 258 kts | 146° |
| 2026-05-09 04:43 | 19.49944 | -70.41605 | 7130 ft | 257 kts | 150° |
| 2026-05-09 04:43 | 19.48329 | -70.40814 | 6799 ft | 254 kts | 156° |
| 2026-05-09 04:43 | 19.46687 | -70.40192 | 6462 ft | 246 kts | 160° |
| 2026-05-09 04:43 | 19.45062 | -70.39740 | 6159 ft | 237 kts | 165° |
| 2026-05-09 04:44 | 19.43461 | -70.39436 | 5863 ft | 230 kts | 169° |
| 2026-05-09 04:44 | 19.41896 | -70.39273 | 5564 ft | 222 kts | 174° |
| 2026-05-09 04:44 | 19.40373 | -70.39241 | 5273 ft | 216 kts | 178° |
| 2026-05-09 04:44 | 19.38881 | -70.39327 | 5001 ft | 214 kts | 182° |
| 2026-05-09 04:45 | 19.37414 | -70.39529 | 4719 ft | 212 kts | 187° |
| 2026-05-09 04:45 | 19.36079 | -70.40186 | 4386 ft | 218 kts | 224° |
| 2026-05-09 04:45 | 19.35498 | -70.41621 | 4057 ft | 214 kts | 270° |
| 2026-05-09 04:45 | 19.35831 | -70.43085 | 3800 ft | 198 kts | 293° |
| 2026-05-09 04:46 | 19.36258 | -70.44411 | 3529 ft | 181 kts | 289° |
| 2026-05-09 04:46 | 19.36616 | -70.45640 | 3259 ft | 170 kts | 289° |
| 2026-05-09 04:46 | 19.36956 | -70.46830 | 3007 ft | 167 kts | 288° |
| 2026-05-09 04:46 | 19.37276 | -70.47983 | 2770 ft | 163 kts | 289° |
| 2026-05-09 04:47 | 19.37596 | -70.49133 | 2523 ft | 162 kts | 288° |
| 2026-05-09 04:47 | 19.37914 | -70.50264 | 2302 ft | 160 kts | 288° |
| 2026-05-09 04:47 | 19.38235 | -70.51378 | 2045 ft | 157 kts | 289° |
| 2026-05-09 04:47 | 19.38622 | -70.52448 | 1928 ft | 154 kts | 295° |
| 2026-05-09 04:48 | 19.39019 | -70.53500 | 1886 ft | 156 kts | 290° |
| 2026-05-09 04:48 | 19.39322 | -70.54596 | 1590 ft | 154 kts | 283° |
| 2026-05-09 04:48 | 19.39533 | -70.55693 | 1301 ft | 151 kts | 284° |
| 2026-05-09 04:48 | 19.39804 | -70.56769 | 1077 ft | 151 kts | 284° |
| 2026-05-09 04:49 | 19.40042 | -70.57849 | 857 ft | 150 kts | 282° |
| 2026-05-09 04:49 | 19.40273 | -70.58919 | 687 ft | 149 kts | 284° |
| 2026-05-09 04:49 | 19.40505 | -70.59972 | 570 ft | 137 kts | 282° |
| 2026-05-09 04:49 | 19.40668 | -70.60793 | 571 ft | 89 kts | 283° |
| 2026-05-09 04:50 | 19.40776 | -70.61255 | 570 ft | 40 kts | 283° |
| 2026-05-09 04:50 | 19.40800 | -70.61372 | 570 ft | 2 kts | 276° |
| 2026-05-09 04:50 | 19.40814 | -70.61449 | 570 ft | 17 kts | 282° |
| 2026-05-09 04:50 | 19.40830 | -70.61582 | 569 ft | 20 kts | 263° |
| 2026-05-09 04:51 | 19.40851 | -70.61653 | 568 ft | 5 kts | 20° |
| 2026-05-09 04:51 | 19.40859 | -70.61625 | 568 ft | 5 kts | 83° |
| 2026-05-09 04:51 | 19.40847 | -70.61545 | 569 ft | 18 kts | 105° |
| 2026-05-09 04:51 | 19.40817 | -70.61411 | 570 ft | 19 kts | 104° |
| 2026-05-09 04:52 | 19.40784 | -70.61265 | 572 ft | 21 kts | 103° |
| 2026-05-09 04:52 | 19.40752 | -70.61115 | 572 ft | 21 kts | 102° |
| 2026-05-09 04:52 | 19.40720 | -70.60957 | 572 ft | 23 kts | 102° |
| 2026-05-09 04:52 | 19.40682 | -70.60787 | 574 ft | 25 kts | 104° |
| 2026-05-09 04:53 | 19.40639 | -70.60605 | 570 ft | 26 kts | 104° |
| 2026-05-09 04:53 | 19.40607 | -70.60456 | 568 ft | 8 kts | 106° |
| 2026-05-09 04:53 | 19.40559 | -70.60423 | 569 ft | 9 kts | 176° |
| 2026-05-09 04:53 | 19.40491 | -70.60436 | 572 ft | 10 kts | 193° |
| 2026-05-09 04:54 | 19.40428 | -70.60437 | 570 ft | 9 kts | 150° |
| 2026-05-09 04:54 | 19.40404 | -70.60370 | 570 ft | 11 kts | 101° |
| 2026-05-09 04:54 | 19.40397 | -70.60330 | 570 ft | 0 kts | 100° |
| 2026-05-09 04:54 | 19.40395 | -70.60320 | 570 ft | 3 kts | 100° |
| 2026-05-09 04:55 | 19.40391 | -70.60294 | 570 ft | 5 kts | 100° |
| 2026-05-09 04:55 | 19.40384 | -70.60251 | 576 ft | 7 kts | 100° |
| 2026-05-09 04:55 | 19.40381 | -70.60239 | 570 ft | 1 kts | 100° |
| 2026-05-09 04:55 | 19.40381 | -70.60237 | 570 ft | 0 kts | 100° |
| 2026-05-09 04:56 | 19.40380 | -70.60230 | 573 ft | 4 kts | 100° |
| 2026-05-09 04:56 | 19.40361 | -70.60213 | 570 ft | 4 kts | 169° |
| 2026-05-09 04:56 | 19.40328 | -70.60219 | 570 ft | 6 kts | 202° |
| 2026-05-09 04:56 | 19.40305 | -70.60229 | 576 ft | 3 kts | 202° |
| 2026-05-09 04:57 | 19.40289 | -70.60237 | 570 ft | 0 kts | 203° |